sensor_id;sensor_type;location;lat;lon;timestamp;P1;durP1;ratioP1;P2;durP2;ratioP2
27839;SDS011;15207;42.182;24.308;2023-04-25T00:00:17;3.67;;;2.47;;
27839;SDS011;15207;42.182;24.308;2023-04-25T00:02:42;2.80;;;2.10;;
27839;SDS011;15207;42.182;24.308;2023-04-25T00:05:08;2.88;;;2.40;;
27839;SDS011;15207;42.182;24.308;2023-04-25T00:07:34;3.05;;;2.47;;
27839;SDS011;15207;42.182;24.308;2023-04-25T00:10:00;3.20;;;2.05;;
27839;SDS011;15207;42.182;24.308;2023-04-25T00:12:25;3.72;;;2.13;;
27839;SDS011;15207;42.182;24.308;2023-04-25T00:14:53;5.93;;;2.45;;
27839;SDS011;15207;42.182;24.308;2023-04-25T00:17:21;2.67;;;2.10;;
27839;SDS011;15207;42.182;24.308;2023-04-25T00:19:49;3.55;;;2.47;;
27839;SDS011;15207;42.182;24.308;2023-04-25T00:22:15;5.43;;;2.85;;
27839;SDS011;15207;42.182;24.308;2023-04-25T00:24:41;3.70;;;2.40;;
27839;SDS011;15207;42.182;24.308;2023-04-25T00:27:06;4.55;;;2.28;;
27839;SDS011;15207;42.182;24.308;2023-04-25T00:29:32;4.13;;;2.72;;
27839;SDS011;15207;42.182;24.308;2023-04-25T00:31:58;3.50;;;2.53;;
27839;SDS011;15207;42.182;24.308;2023-04-25T00:34:23;4.35;;;2.63;;
27839;SDS011;15207;42.182;24.308;2023-04-25T00:36:49;4.25;;;2.80;;
27839;SDS011;15207;42.182;24.308;2023-04-25T00:39:14;3.58;;;3.00;;
27839;SDS011;15207;42.182;24.308;2023-04-25T00:41:40;4.68;;;3.10;;
27839;SDS011;15207;42.182;24.308;2023-04-25T00:44:05;5.35;;;3.08;;
27839;SDS011;15207;42.182;24.308;2023-04-25T00:46:35;7.65;;;3.33;;
27839;SDS011;15207;42.182;24.308;2023-04-25T00:49:01;4.78;;;3.53;;
27839;SDS011;15207;42.182;24.308;2023-04-25T00:51:26;5.28;;;3.63;;
27839;SDS011;15207;42.182;24.308;2023-04-25T00:53:52;7.40;;;4.00;;
27839;SDS011;15207;42.182;24.308;2023-04-25T00:56:18;5.05;;;3.50;;
27839;SDS011;15207;42.182;24.308;2023-04-25T00:58:45;6.45;;;3.78;;
27839;SDS011;15207;42.182;24.308;2023-04-25T01:01:10;4.93;;;3.67;;
27839;SDS011;15207;42.182;24.308;2023-04-25T01:03:37;5.82;;;3.60;;
27839;SDS011;15207;42.182;24.308;2023-04-25T01:06:07;6.63;;;4.05;;
27839;SDS011;15207;42.182;24.308;2023-04-25T01:08:34;5.65;;;3.53;;
27839;SDS011;15207;42.182;24.308;2023-04-25T01:11:00;5.30;;;3.85;;
27839;SDS011;15207;42.182;24.308;2023-04-25T01:13:25;6.43;;;3.92;;
27839;SDS011;15207;42.182;24.308;2023-04-25T01:15:51;5.60;;;3.70;;
27839;SDS011;15207;42.182;24.308;2023-04-25T01:18:16;5.47;;;3.85;;
27839;SDS011;15207;42.182;24.308;2023-04-25T01:20:43;6.88;;;3.88;;
27839;SDS011;15207;42.182;24.308;2023-04-25T01:23:10;7.57;;;4.07;;
27839;SDS011;15207;42.182;24.308;2023-04-25T01:25:37;4.78;;;3.53;;
27839;SDS011;15207;42.182;24.308;2023-04-25T01:28:03;5.82;;;3.67;;
27839;SDS011;15207;42.182;24.308;2023-04-25T01:30:30;4.93;;;3.60;;
27839;SDS011;15207;42.182;24.308;2023-04-25T01:32:56;4.70;;;3.53;;
27839;SDS011;15207;42.182;24.308;2023-04-25T01:35:22;5.18;;;3.67;;
27839;SDS011;15207;42.182;24.308;2023-04-25T01:37:49;6.40;;;3.60;;
27839;SDS011;15207;42.182;24.308;2023-04-25T01:40:16;5.90;;;3.50;;
27839;SDS011;15207;42.182;24.308;2023-04-25T01:42:44;4.50;;;3.55;;
27839;SDS011;15207;42.182;24.308;2023-04-25T01:45:10;6.00;;;3.80;;
27839;SDS011;15207;42.182;24.308;2023-04-25T01:47:37;6.70;;;4.43;;
27839;SDS011;15207;42.182;24.308;2023-04-25T01:50:05;5.70;;;4.22;;
27839;SDS011;15207;42.182;24.308;2023-04-25T01:52:32;6.70;;;3.83;;
27839;SDS011;15207;42.182;24.308;2023-04-25T01:54:57;6.32;;;4.35;;
27839;SDS011;15207;42.182;24.308;2023-04-25T01:57:26;6.95;;;3.90;;
27839;SDS011;15207;42.182;24.308;2023-04-25T01:59:52;6.57;;;4.00;;
27839;SDS011;15207;42.182;24.308;2023-04-25T02:02:23;6.60;;;4.25;;
27839;SDS011;15207;42.182;24.308;2023-04-25T02:04:48;5.80;;;4.38;;
27839;SDS011;15207;42.182;24.308;2023-04-25T02:07:14;5.50;;;3.92;;
27839;SDS011;15207;42.182;24.308;2023-04-25T02:09:40;6.63;;;4.10;;
27839;SDS011;15207;42.182;24.308;2023-04-25T02:12:07;7.68;;;4.68;;
27839;SDS011;15207;42.182;24.308;2023-04-25T02:14:34;8.13;;;4.70;;
27839;SDS011;15207;42.182;24.308;2023-04-25T02:16:59;7.55;;;4.60;;
27839;SDS011;15207;42.182;24.308;2023-04-25T02:19:25;5.65;;;4.43;;
27839;SDS011;15207;42.182;24.308;2023-04-25T02:21:50;6.25;;;4.00;;
27839;SDS011;15207;42.182;24.308;2023-04-25T02:24:16;6.63;;;4.55;;
27839;SDS011;15207;42.182;24.308;2023-04-25T02:26:41;7.63;;;4.10;;
27839;SDS011;15207;42.182;24.308;2023-04-25T02:29:07;7.10;;;4.45;;
27839;SDS011;15207;42.182;24.308;2023-04-25T02:31:32;7.93;;;5.10;;
27839;SDS011;15207;42.182;24.308;2023-04-25T02:33:57;6.65;;;4.13;;
27839;SDS011;15207;42.182;24.308;2023-04-25T02:36:23;7.05;;;4.45;;
27839;SDS011;15207;42.182;24.308;2023-04-25T02:38:49;5.85;;;4.03;;
27839;SDS011;15207;42.182;24.308;2023-04-25T02:41:15;6.18;;;3.55;;
27839;SDS011;15207;42.182;24.308;2023-04-25T02:43:40;6.75;;;4.63;;
27839;SDS011;15207;42.182;24.308;2023-04-25T02:46:06;7.57;;;4.68;;
27839;SDS011;15207;42.182;24.308;2023-04-25T02:48:31;6.60;;;4.50;;
27839;SDS011;15207;42.182;24.308;2023-04-25T02:50:56;7.72;;;4.35;;
27839;SDS011;15207;42.182;24.308;2023-04-25T02:53:22;8.68;;;4.68;;
27839;SDS011;15207;42.182;24.308;2023-04-25T02:55:47;10.95;;;4.57;;
27839;SDS011;15207;42.182;24.308;2023-04-25T02:58:13;6.75;;;4.60;;
27839;SDS011;15207;42.182;24.308;2023-04-25T03:00:38;6.20;;;4.25;;
27839;SDS011;15207;42.182;24.308;2023-04-25T03:03:04;6.90;;;4.32;;
27839;SDS011;15207;42.182;24.308;2023-04-25T03:05:29;7.95;;;5.22;;
27839;SDS011;15207;42.182;24.308;2023-04-25T03:07:55;7.82;;;4.63;;
27839;SDS011;15207;42.182;24.308;2023-04-25T03:10:20;7.22;;;4.78;;
27839;SDS011;15207;42.182;24.308;2023-04-25T03:12:46;6.93;;;4.65;;
27839;SDS011;15207;42.182;24.308;2023-04-25T03:15:11;10.70;;;4.65;;
27839;SDS011;15207;42.182;24.308;2023-04-25T03:17:36;7.30;;;4.50;;
27839;SDS011;15207;42.182;24.308;2023-04-25T03:20:02;8.88;;;5.80;;
27839;SDS011;15207;42.182;24.308;2023-04-25T03:22:29;10.50;;;5.95;;
27839;SDS011;15207;42.182;24.308;2023-04-25T03:24:54;13.07;;;8.10;;
27839;SDS011;15207;42.182;24.308;2023-04-25T03:27:20;15.15;;;8.40;;
27839;SDS011;15207;42.182;24.308;2023-04-25T03:29:45;11.07;;;6.95;;
27839;SDS011;15207;42.182;24.308;2023-04-25T03:32:11;10.32;;;6.25;;
27839;SDS011;15207;42.182;24.308;2023-04-25T03:34:36;13.70;;;6.53;;
27839;SDS011;15207;42.182;24.308;2023-04-25T03:37:02;9.30;;;6.68;;
27839;SDS011;15207;42.182;24.308;2023-04-25T03:39:27;12.60;;;6.72;;
27839;SDS011;15207;42.182;24.308;2023-04-25T03:41:53;8.95;;;5.97;;
27839;SDS011;15207;42.182;24.308;2023-04-25T03:44:18;11.35;;;6.97;;
27839;SDS011;15207;42.182;24.308;2023-04-25T03:46:44;7.95;;;5.43;;
27839;SDS011;15207;42.182;24.308;2023-04-25T03:49:09;8.13;;;5.28;;
27839;SDS011;15207;42.182;24.308;2023-04-25T03:51:35;8.30;;;5.40;;
27839;SDS011;15207;42.182;24.308;2023-04-25T03:54:00;7.53;;;5.28;;
27839;SDS011;15207;42.182;24.308;2023-04-25T03:56:26;8.52;;;5.10;;
27839;SDS011;15207;42.182;24.308;2023-04-25T03:58:51;6.85;;;4.93;;
27839;SDS011;15207;42.182;24.308;2023-04-25T04:01:17;7.43;;;4.90;;
27839;SDS011;15207;42.182;24.308;2023-04-25T04:03:42;8.48;;;4.88;;
27839;SDS011;15207;42.182;24.308;2023-04-25T04:06:07;6.13;;;4.55;;
27839;SDS011;15207;42.182;24.308;2023-04-25T04:08:34;6.63;;;4.70;;
27839;SDS011;15207;42.182;24.308;2023-04-25T04:10:59;5.80;;;3.97;;
27839;SDS011;15207;42.182;24.308;2023-04-25T04:13:25;9.95;;;5.72;;
27839;SDS011;15207;42.182;24.308;2023-04-25T04:15:52;9.50;;;5.25;;
27839;SDS011;15207;42.182;24.308;2023-04-25T04:18:18;6.78;;;4.82;;
27839;SDS011;15207;42.182;24.308;2023-04-25T04:20:43;11.00;;;4.88;;
27839;SDS011;15207;42.182;24.308;2023-04-25T04:23:09;7.15;;;5.22;;
27839;SDS011;15207;42.182;24.308;2023-04-25T04:25:35;9.10;;;4.95;;
27839;SDS011;15207;42.182;24.308;2023-04-25T04:28:01;8.68;;;5.38;;
27839;SDS011;15207;42.182;24.308;2023-04-25T04:30:26;6.70;;;4.97;;
27839;SDS011;15207;42.182;24.308;2023-04-25T04:32:56;11.15;;;5.47;;
27839;SDS011;15207;42.182;24.308;2023-04-25T04:35:22;9.65;;;5.10;;
27839;SDS011;15207;42.182;24.308;2023-04-25T04:37:48;7.75;;;5.25;;
27839;SDS011;15207;42.182;24.308;2023-04-25T04:40:14;9.07;;;5.75;;
27839;SDS011;15207;42.182;24.308;2023-04-25T04:42:41;9.25;;;5.57;;
27839;SDS011;15207;42.182;24.308;2023-04-25T04:45:13;8.35;;;6.03;;
27839;SDS011;15207;42.182;24.308;2023-04-25T04:47:39;8.57;;;5.70;;
27839;SDS011;15207;42.182;24.308;2023-04-25T04:50:08;9.52;;;6.13;;
27839;SDS011;15207;42.182;24.308;2023-04-25T04:52:38;10.45;;;5.85;;
27839;SDS011;15207;42.182;24.308;2023-04-25T04:55:04;8.80;;;5.83;;
27839;SDS011;15207;42.182;24.308;2023-04-25T04:57:30;11.05;;;5.93;;
27839;SDS011;15207;42.182;24.308;2023-04-25T04:59:58;8.65;;;5.50;;
27839;SDS011;15207;42.182;24.308;2023-04-25T05:02:24;9.38;;;5.75;;
27839;SDS011;15207;42.182;24.308;2023-04-25T05:04:50;7.03;;;5.07;;
27839;SDS011;15207;42.182;24.308;2023-04-25T05:07:16;5.90;;;4.28;;
27839;SDS011;15207;42.182;24.308;2023-04-25T05:09:42;7.57;;;4.95;;
27839;SDS011;15207;42.182;24.308;2023-04-25T05:12:08;10.02;;;5.07;;
27839;SDS011;15207;42.182;24.308;2023-04-25T05:14:33;43.17;;;24.42;;
27839;SDS011;15207;42.182;24.308;2023-04-25T05:16:59;10.43;;;7.18;;
27839;SDS011;15207;42.182;24.308;2023-04-25T05:19:25;10.88;;;5.85;;
27839;SDS011;15207;42.182;24.308;2023-04-25T05:21:51;7.00;;;4.75;;
27839;SDS011;15207;42.182;24.308;2023-04-25T05:24:17;8.70;;;4.75;;
27839;SDS011;15207;42.182;24.308;2023-04-25T05:26:43;7.47;;;4.30;;
27839;SDS011;15207;42.182;24.308;2023-04-25T05:29:08;8.10;;;4.72;;
27839;SDS011;15207;42.182;24.308;2023-04-25T05:31:35;8.00;;;4.70;;
27839;SDS011;15207;42.182;24.308;2023-04-25T05:34:01;7.35;;;4.80;;
27839;SDS011;15207;42.182;24.308;2023-04-25T05:36:27;6.38;;;4.65;;
27839;SDS011;15207;42.182;24.308;2023-04-25T05:38:53;9.52;;;4.90;;
27839;SDS011;15207;42.182;24.308;2023-04-25T05:41:19;9.25;;;5.00;;
27839;SDS011;15207;42.182;24.308;2023-04-25T05:43:45;9.07;;;5.10;;
27839;SDS011;15207;42.182;24.308;2023-04-25T05:46:12;6.13;;;4.55;;
27839;SDS011;15207;42.182;24.308;2023-04-25T05:48:38;9.40;;;5.65;;
27839;SDS011;15207;42.182;24.308;2023-04-25T05:51:04;7.18;;;5.05;;
27839;SDS011;15207;42.182;24.308;2023-04-25T05:53:30;8.05;;;4.55;;
27839;SDS011;15207;42.182;24.308;2023-04-25T05:55:55;7.25;;;4.10;;
27839;SDS011;15207;42.182;24.308;2023-04-25T05:58:20;6.53;;;3.80;;
27839;SDS011;15207;42.182;24.308;2023-04-25T06:00:47;5.78;;;3.38;;
27839;SDS011;15207;42.182;24.308;2023-04-25T06:03:12;4.20;;;3.15;;
27839;SDS011;15207;42.182;24.308;2023-04-25T06:05:43;3.20;;;2.70;;
27839;SDS011;15207;42.182;24.308;2023-04-25T06:08:09;4.27;;;3.33;;
27839;SDS011;15207;42.182;24.308;2023-04-25T06:10:35;3.63;;;3.00;;
27839;SDS011;15207;42.182;24.308;2023-04-25T06:13:01;7.10;;;2.80;;
27839;SDS011;15207;42.182;24.308;2023-04-25T06:15:27;4.93;;;3.35;;
27839;SDS011;15207;42.182;24.308;2023-04-25T06:17:53;4.72;;;3.50;;
27839;SDS011;15207;42.182;24.308;2023-04-25T06:20:19;4.75;;;3.53;;
27839;SDS011;15207;42.182;24.308;2023-04-25T06:22:48;4.50;;;3.40;;
27839;SDS011;15207;42.182;24.308;2023-04-25T06:25:14;6.15;;;3.38;;
27839;SDS011;15207;42.182;24.308;2023-04-25T06:27:40;4.40;;;3.25;;
27839;SDS011;15207;42.182;24.308;2023-04-25T06:30:05;5.93;;;3.70;;
27839;SDS011;15207;42.182;24.308;2023-04-25T06:32:31;4.95;;;3.40;;
27839;SDS011;15207;42.182;24.308;2023-04-25T06:34:57;3.63;;;2.85;;
27839;SDS011;15207;42.182;24.308;2023-04-25T06:37:23;5.65;;;3.22;;
27839;SDS011;15207;42.182;24.308;2023-04-25T06:39:48;4.78;;;3.22;;
27839;SDS011;15207;42.182;24.308;2023-04-25T06:42:14;4.68;;;2.97;;
27839;SDS011;15207;42.182;24.308;2023-04-25T06:44:40;4.05;;;3.03;;
27839;SDS011;15207;42.182;24.308;2023-04-25T06:47:05;3.45;;;2.20;;
27839;SDS011;15207;42.182;24.308;2023-04-25T06:49:31;4.30;;;2.80;;
27839;SDS011;15207;42.182;24.308;2023-04-25T06:51:56;4.38;;;2.30;;
27839;SDS011;15207;42.182;24.308;2023-04-25T06:54:22;6.50;;;3.13;;
27839;SDS011;15207;42.182;24.308;2023-04-25T06:56:47;5.28;;;2.90;;
27839;SDS011;15207;42.182;24.308;2023-04-25T06:59:13;2.90;;;2.13;;
27839;SDS011;15207;42.182;24.308;2023-04-25T07:01:38;3.58;;;2.63;;
27839;SDS011;15207;42.182;24.308;2023-04-25T07:04:05;2.45;;;1.98;;
27839;SDS011;15207;42.182;24.308;2023-04-25T07:06:31;4.47;;;2.22;;
27839;SDS011;15207;42.182;24.308;2023-04-25T07:08:56;4.28;;;2.20;;
27839;SDS011;15207;42.182;24.308;2023-04-25T07:11:22;2.83;;;2.10;;
27839;SDS011;15207;42.182;24.308;2023-04-25T07:13:47;3.90;;;2.40;;
27839;SDS011;15207;42.182;24.308;2023-04-25T07:16:13;2.10;;;1.90;;
27839;SDS011;15207;42.182;24.308;2023-04-25T07:18:39;2.75;;;2.42;;
27839;SDS011;15207;42.182;24.308;2023-04-25T07:21:04;2.72;;;2.33;;
27839;SDS011;15207;42.182;24.308;2023-04-25T07:23:30;3.25;;;2.10;;
27839;SDS011;15207;42.182;24.308;2023-04-25T07:25:55;2.88;;;2.40;;
27839;SDS011;15207;42.182;24.308;2023-04-25T07:28:21;3.83;;;2.45;;
27839;SDS011;15207;42.182;24.308;2023-04-25T07:30:47;5.00;;;2.50;;
27839;SDS011;15207;42.182;24.308;2023-04-25T07:33:12;4.22;;;2.58;;
27839;SDS011;15207;42.182;24.308;2023-04-25T07:35:38;4.53;;;2.40;;
27839;SDS011;15207;42.182;24.308;2023-04-25T07:38:03;4.13;;;2.58;;
27839;SDS011;15207;42.182;24.308;2023-04-25T07:40:31;3.45;;;2.30;;
27839;SDS011;15207;42.182;24.308;2023-04-25T07:42:57;2.75;;;2.40;;
27839;SDS011;15207;42.182;24.308;2023-04-25T07:45:22;2.78;;;2.00;;
27839;SDS011;15207;42.182;24.308;2023-04-25T07:47:48;4.38;;;2.78;;
27839;SDS011;15207;42.182;24.308;2023-04-25T07:50:15;2.67;;;2.25;;
27839;SDS011;15207;42.182;24.308;2023-04-25T07:52:40;3.20;;;2.10;;
27839;SDS011;15207;42.182;24.308;2023-04-25T07:55:06;4.20;;;2.88;;
27839;SDS011;15207;42.182;24.308;2023-04-25T07:57:32;2.67;;;2.40;;
27839;SDS011;15207;42.182;24.308;2023-04-25T07:59:57;2.38;;;2.13;;
27839;SDS011;15207;42.182;24.308;2023-04-25T08:02:23;4.35;;;2.38;;
27839;SDS011;15207;42.182;24.308;2023-04-25T08:04:49;2.35;;;2.00;;
27839;SDS011;15207;42.182;24.308;2023-04-25T08:07:17;3.42;;;2.40;;
27839;SDS011;15207;42.182;24.308;2023-04-25T08:09:42;2.30;;;2.08;;
27839;SDS011;15207;42.182;24.308;2023-04-25T08:12:08;3.47;;;2.03;;
27839;SDS011;15207;42.182;24.308;2023-04-25T08:14:35;3.00;;;2.20;;
27839;SDS011;15207;42.182;24.308;2023-04-25T08:17:02;7.47;;;2.42;;
27839;SDS011;15207;42.182;24.308;2023-04-25T08:19:29;6.55;;;2.40;;
27839;SDS011;15207;42.182;24.308;2023-04-25T08:21:55;4.50;;;2.28;;
27839;SDS011;15207;42.182;24.308;2023-04-25T08:24:21;2.17;;;1.88;;
27839;SDS011;15207;42.182;24.308;2023-04-25T08:26:47;4.47;;;2.05;;
27839;SDS011;15207;42.182;24.308;2023-04-25T08:29:13;4.28;;;2.05;;
27839;SDS011;15207;42.182;24.308;2023-04-25T08:31:39;5.10;;;2.63;;
27839;SDS011;15207;42.182;24.308;2023-04-25T08:34:05;2.95;;;2.25;;
27839;SDS011;15207;42.182;24.308;2023-04-25T08:36:31;4.10;;;2.30;;
27839;SDS011;15207;42.182;24.308;2023-04-25T08:38:57;3.80;;;2.50;;
27839;SDS011;15207;42.182;24.308;2023-04-25T08:41:23;3.72;;;2.30;;
27839;SDS011;15207;42.182;24.308;2023-04-25T08:43:49;3.03;;;1.95;;
27839;SDS011;15207;42.182;24.308;2023-04-25T08:46:17;3.05;;;2.50;;
27839;SDS011;15207;42.182;24.308;2023-04-25T08:48:44;2.38;;;1.90;;
27839;SDS011;15207;42.182;24.308;2023-04-25T08:51:15;2.05;;;1.70;;
27839;SDS011;15207;42.182;24.308;2023-04-25T08:53:48;2.03;;;1.63;;
27839;SDS011;15207;42.182;24.308;2023-04-25T08:56:16;2.20;;;1.70;;
27839;SDS011;15207;42.182;24.308;2023-04-25T08:58:43;2.33;;;2.10;;
27839;SDS011;15207;42.182;24.308;2023-04-25T09:01:11;2.08;;;1.75;;
27839;SDS011;15207;42.182;24.308;2023-04-25T09:03:37;2.88;;;2.00;;
27839;SDS011;15207;42.182;24.308;2023-04-25T09:06:03;2.47;;;1.63;;
27839;SDS011;15207;42.182;24.308;2023-04-25T09:08:29;4.05;;;2.50;;
27839;SDS011;15207;42.182;24.308;2023-04-25T09:10:55;2.53;;;1.80;;
27839;SDS011;15207;42.182;24.308;2023-04-25T09:13:27;2.97;;;1.30;;
27839;SDS011;15207;42.182;24.308;2023-04-25T09:15:54;2.33;;;1.73;;
27839;SDS011;15207;42.182;24.308;2023-04-25T09:18:25;1.80;;;1.40;;
27839;SDS011;15207;42.182;24.308;2023-04-25T09:20:52;2.58;;;1.67;;
27839;SDS011;15207;42.182;24.308;2023-04-25T09:23:19;1.90;;;1.70;;
27839;SDS011;15207;42.182;24.308;2023-04-25T09:25:49;4.68;;;2.08;;
27839;SDS011;15207;42.182;24.308;2023-04-25T09:28:18;2.25;;;1.70;;
27839;SDS011;15207;42.182;24.308;2023-04-25T09:30:49;2.40;;;1.70;;
27839;SDS011;15207;42.182;24.308;2023-04-25T09:33:15;2.22;;;1.55;;
27839;SDS011;15207;42.182;24.308;2023-04-25T09:35:42;1.52;;;1.35;;
27839;SDS011;15207;42.182;24.308;2023-04-25T09:40:38;1.52;;;1.23;;
27839;SDS011;15207;42.182;24.308;2023-04-25T09:43:20;2.63;;;1.77;;
27839;SDS011;15207;42.182;24.308;2023-04-25T09:45:47;4.40;;;1.90;;
27839;SDS011;15207;42.182;24.308;2023-04-25T09:48:19;5.93;;;1.35;;
27839;SDS011;15207;42.182;24.308;2023-04-25T09:51:07;2.63;;;1.58;;
27839;SDS011;15207;42.182;24.308;2023-04-25T09:53:33;1.65;;;1.55;;
27839;SDS011;15207;42.182;24.308;2023-04-25T09:56:16;1.88;;;1.45;;
27839;SDS011;15207;42.182;24.308;2023-04-25T09:58:45;2.42;;;1.40;;
27839;SDS011;15207;42.182;24.308;2023-04-25T10:01:12;2.33;;;1.77;;
27839;SDS011;15207;42.182;24.308;2023-04-25T10:03:38;1.65;;;1.40;;
27839;SDS011;15207;42.182;24.308;2023-04-25T10:06:23;2.05;;;1.60;;
27839;SDS011;15207;42.182;24.308;2023-04-25T10:08:51;2.55;;;1.58;;
27839;SDS011;15207;42.182;24.308;2023-04-25T10:11:19;2.40;;;1.58;;
27839;SDS011;15207;42.182;24.308;2023-04-25T10:13:48;1.63;;;1.53;;
27839;SDS011;15207;42.182;24.308;2023-04-25T10:16:14;1.30;;;1.20;;
27839;SDS011;15207;42.182;24.308;2023-04-25T10:18:41;1.48;;;1.20;;
27839;SDS011;15207;42.182;24.308;2023-04-25T10:21:06;1.25;;;1.15;;
27839;SDS011;15207;42.182;24.308;2023-04-25T10:23:32;1.75;;;1.30;;
27839;SDS011;15207;42.182;24.308;2023-04-25T10:26:01;1.80;;;1.35;;
27839;SDS011;15207;42.182;24.308;2023-04-25T10:28:27;1.73;;;1.40;;
27839;SDS011;15207;42.182;24.308;2023-04-25T10:30:57;3.28;;;1.88;;
27839;SDS011;15207;42.182;24.308;2023-04-25T10:33:35;3.10;;;1.60;;
27839;SDS011;15207;42.182;24.308;2023-04-25T10:38:40;2.90;;;1.80;;
27839;SDS011;15207;42.182;24.308;2023-04-25T10:41:08;2.20;;;1.60;;
27839;SDS011;15207;42.182;24.308;2023-04-25T10:43:37;2.53;;;1.63;;
27839;SDS011;15207;42.182;24.308;2023-04-25T10:46:17;2.42;;;1.90;;
27839;SDS011;15207;42.182;24.308;2023-04-25T10:48:51;1.52;;;1.40;;
27839;SDS011;15207;42.182;24.308;2023-04-25T10:51:25;1.48;;;1.20;;
27839;SDS011;15207;42.182;24.308;2023-04-25T10:56:37;2.10;;;1.40;;
27839;SDS011;15207;42.182;24.308;2023-04-25T10:59:07;3.25;;;1.05;;
27839;SDS011;15207;42.182;24.308;2023-04-25T11:09:32;1.15;;;0.80;;
27839;SDS011;15207;42.182;24.308;2023-04-25T11:11:59;1.30;;;0.95;;
27839;SDS011;15207;42.182;24.308;2023-04-25T11:14:25;1.20;;;1.10;;
27839;SDS011;15207;42.182;24.308;2023-04-25T11:16:55;1.35;;;0.98;;
27839;SDS011;15207;42.182;24.308;2023-04-25T11:19:22;2.28;;;1.02;;
27839;SDS011;15207;42.182;24.308;2023-04-25T11:21:48;1.20;;;1.08;;
27839;SDS011;15207;42.182;24.308;2023-04-25T11:24:14;2.55;;;1.27;;
27839;SDS011;15207;42.182;24.308;2023-04-25T11:26:42;1.10;;;1.00;;
27839;SDS011;15207;42.182;24.308;2023-04-25T11:29:08;1.00;;;0.90;;
27839;SDS011;15207;42.182;24.308;2023-04-25T11:31:33;1.92;;;1.13;;
27839;SDS011;15207;42.182;24.308;2023-04-25T11:33:59;1.38;;;1.17;;
27839;SDS011;15207;42.182;24.308;2023-04-25T11:36:26;2.13;;;1.45;;
27839;SDS011;15207;42.182;24.308;2023-04-25T11:38:52;1.23;;;1.00;;
27839;SDS011;15207;42.182;24.308;2023-04-25T11:41:19;0.90;;;0.90;;
27839;SDS011;15207;42.182;24.308;2023-04-25T11:43:47;1.50;;;1.00;;
27839;SDS011;15207;42.182;24.308;2023-04-25T11:46:14;1.48;;;0.80;;
27839;SDS011;15207;42.182;24.308;2023-04-25T11:48:40;0.98;;;0.90;;
27839;SDS011;15207;42.182;24.308;2023-04-25T11:51:07;2.10;;;0.85;;
27839;SDS011;15207;42.182;24.308;2023-04-25T11:53:33;1.10;;;1.00;;
27839;SDS011;15207;42.182;24.308;2023-04-25T11:55:59;1.13;;;0.88;;
27839;SDS011;15207;42.182;24.308;2023-04-25T11:58:25;1.75;;;1.20;;
27839;SDS011;15207;42.182;24.308;2023-04-25T12:00:51;1.33;;;1.23;;
27839;SDS011;15207;42.182;24.308;2023-04-25T12:03:17;2.22;;;1.27;;
27839;SDS011;15207;42.182;24.308;2023-04-25T12:05:44;1.40;;;1.27;;
27839;SDS011;15207;42.182;24.308;2023-04-25T12:08:13;1.00;;;1.00;;
27839;SDS011;15207;42.182;24.308;2023-04-25T12:10:41;1.60;;;1.00;;
27839;SDS011;15207;42.182;24.308;2023-04-25T12:13:23;3.30;;;0.90;;
27839;SDS011;15207;42.182;24.308;2023-04-25T12:15:51;3.60;;;1.30;;
27839;SDS011;15207;42.182;24.308;2023-04-25T12:18:19;0.93;;;0.93;;
27839;SDS011;15207;42.182;24.308;2023-04-25T12:20:47;1.30;;;1.00;;
27839;SDS011;15207;42.182;24.308;2023-04-25T12:23:13;2.05;;;1.20;;
27839;SDS011;15207;42.182;24.308;2023-04-25T12:25:42;1.20;;;1.10;;
27839;SDS011;15207;42.182;24.308;2023-04-25T12:28:16;1.08;;;1.05;;
27839;SDS011;15207;42.182;24.308;2023-04-25T12:30:57;2.17;;;1.42;;
27839;SDS011;15207;42.182;24.308;2023-04-25T12:33:33;3.63;;;1.48;;
27839;SDS011;15207;42.182;24.308;2023-04-25T12:36:00;2.53;;;1.60;;
27839;SDS011;15207;42.182;24.308;2023-04-25T12:38:35;2.55;;;1.50;;
27839;SDS011;15207;42.182;24.308;2023-04-25T12:41:03;3.00;;;1.55;;
27839;SDS011;15207;42.182;24.308;2023-04-25T12:43:28;3.15;;;1.60;;
27839;SDS011;15207;42.182;24.308;2023-04-25T12:45:55;6.57;;;1.50;;
27839;SDS011;15207;42.182;24.308;2023-04-25T12:48:21;2.70;;;1.48;;
27839;SDS011;15207;42.182;24.308;2023-04-25T12:50:48;1.55;;;1.45;;
27839;SDS011;15207;42.182;24.308;2023-04-25T12:53:15;3.58;;;1.27;;
27839;SDS011;15207;42.182;24.308;2023-04-25T12:55:45;2.25;;;1.70;;
27839;SDS011;15207;42.182;24.308;2023-04-25T12:58:12;2.42;;;1.92;;
27839;SDS011;15207;42.182;24.308;2023-04-25T13:00:42;2.10;;;1.80;;
27839;SDS011;15207;42.182;24.308;2023-04-25T13:03:08;2.63;;;1.48;;
27839;SDS011;15207;42.182;24.308;2023-04-25T13:05:36;1.67;;;1.45;;
27839;SDS011;15207;42.182;24.308;2023-04-25T13:08:02;1.67;;;1.58;;
27839;SDS011;15207;42.182;24.308;2023-04-25T13:10:28;1.60;;;1.50;;
27839;SDS011;15207;42.182;24.308;2023-04-25T13:12:53;1.70;;;1.40;;
27839;SDS011;15207;42.182;24.308;2023-04-25T13:15:19;1.60;;;1.50;;
27839;SDS011;15207;42.182;24.308;2023-04-25T13:17:45;2.05;;;1.85;;
27839;SDS011;15207;42.182;24.308;2023-04-25T13:20:11;1.80;;;1.58;;
27839;SDS011;15207;42.182;24.308;2023-04-25T13:22:37;1.92;;;1.60;;
27839;SDS011;15207;42.182;24.308;2023-04-25T13:25:03;2.00;;;1.73;;
27839;SDS011;15207;42.182;24.308;2023-04-25T13:27:30;1.70;;;1.60;;
27839;SDS011;15207;42.182;24.308;2023-04-25T13:29:57;3.95;;;1.58;;
27839;SDS011;15207;42.182;24.308;2023-04-25T13:32:23;2.15;;;1.50;;
27839;SDS011;15207;42.182;24.308;2023-04-25T13:34:49;1.48;;;1.00;;
27839;SDS011;15207;42.182;24.308;2023-04-25T13:37:15;1.92;;;1.30;;
27839;SDS011;15207;42.182;24.308;2023-04-25T13:39:41;1.25;;;1.13;;
27839;SDS011;15207;42.182;24.308;2023-04-25T13:42:06;1.50;;;1.38;;
27839;SDS011;15207;42.182;24.308;2023-04-25T13:44:32;1.05;;;0.93;;
27839;SDS011;15207;42.182;24.308;2023-04-25T13:46:57;1.38;;;1.05;;
27839;SDS011;15207;42.182;24.308;2023-04-25T13:49:25;1.17;;;0.70;;
27839;SDS011;15207;42.182;24.308;2023-04-25T13:51:51;0.88;;;0.88;;
27839;SDS011;15207;42.182;24.308;2023-04-25T13:54:16;1.08;;;0.70;;
27839;SDS011;15207;42.182;24.308;2023-04-25T13:56:42;1.63;;;0.80;;
27839;SDS011;15207;42.182;24.308;2023-04-25T13:59:07;0.70;;;0.70;;
27839;SDS011;15207;42.182;24.308;2023-04-25T14:01:33;0.50;;;0.50;;
27839;SDS011;15207;42.182;24.308;2023-04-25T14:04:00;0.90;;;0.82;;
27839;SDS011;15207;42.182;24.308;2023-04-25T14:06:29;0.70;;;0.70;;
27839;SDS011;15207;42.182;24.308;2023-04-25T14:08:56;0.88;;;0.88;;
27839;SDS011;15207;42.182;24.308;2023-04-25T14:11:22;0.82;;;0.82;;
27839;SDS011;15207;42.182;24.308;2023-04-25T14:13:47;0.70;;;0.70;;
27839;SDS011;15207;42.182;24.308;2023-04-25T14:16:14;0.70;;;0.70;;
27839;SDS011;15207;42.182;24.308;2023-04-25T14:18:41;1.70;;;1.02;;
27839;SDS011;15207;42.182;24.308;2023-04-25T14:21:06;1.17;;;0.90;;
27839;SDS011;15207;42.182;24.308;2023-04-25T14:23:31;0.73;;;0.73;;
27839;SDS011;15207;42.182;24.308;2023-04-25T14:25:57;2.67;;;1.10;;
27839;SDS011;15207;42.182;24.308;2023-04-25T14:28:22;1.00;;;0.65;;
27839;SDS011;15207;42.182;24.308;2023-04-25T14:30:48;1.52;;;0.80;;
27839;SDS011;15207;42.182;24.308;2023-04-25T14:33:13;0.95;;;0.60;;
27839;SDS011;15207;42.182;24.308;2023-04-25T14:35:39;0.90;;;0.73;;
27839;SDS011;15207;42.182;24.308;2023-04-25T14:38:05;0.80;;;0.80;;
27839;SDS011;15207;42.182;24.308;2023-04-25T14:40:30;0.55;;;0.52;;
27839;SDS011;15207;42.182;24.308;2023-04-25T14:42:56;0.63;;;0.60;;
27839;SDS011;15207;42.182;24.308;2023-04-25T14:45:21;1.33;;;0.80;;